KPWK/PWK METAR and TAF weather

Enter ICAO airport designator
Station Type Date Time Source
KPWK METAR 2019/06/17 12:52 UTC NOAA

KPWK 171252Z 03006KT 10SM OVC012 15/11 A3001 RMK AO2 SLP162 T01500106


Station Type Date Time Source
KPWK Decoded METAR 2019/06/17 12:52 UTC NOAA

CHICAGO EXECUTIVE AIRPORT, IL, United States (KPWK) 42-07N 087-54W 203M
Jun 17, 2019 - 08:52 AM EDT / 2019.06.17 1252 UTC
Wind: from the NNE (030 degrees) at 7 MPH (6 KT):0
Visibility: 10 mile(s):0
Sky conditions: overcast
Temperature: 59.0 F (15.0 C)
Dew Point: 51.1 F (10.6 C)
Relative Humidity: 74%
Pressure (altimeter): 30.01 in. Hg (1016 hPa)
ob: KPWK 171252Z 03006KT 10SM OVC012 15/11 A3001 RMK AO2 SLP162 T01500106
cycle: 13

Station Type Date Time Source
KPWK TAF UTC NOAA

Error!

Example: see airport list